createdAt,value
2018-07-08T00:01:05.465Z,88.20
2018-07-08T00:03:33.524Z,87.80
2018-07-08T00:06:01.596Z,86.70
2018-07-08T00:10:58.836Z,85.80
2018-07-08T00:13:26.980Z,87.60
2018-07-08T00:15:55.060Z,89.50
2018-07-08T00:18:24.001Z,90.30
2018-07-08T00:20:53.221Z,91.20
2018-07-08T00:23:21.916Z,91.80
2018-07-08T00:25:50.006Z,92.80
2018-07-08T00:28:18.293Z,93.10
2018-07-08T00:30:46.465Z,93.90
2018-07-08T00:33:14.507Z,93.10
2018-07-08T00:35:42.554Z,92.90
2018-07-08T00:38:10.596Z,93.50
2018-07-08T00:40:38.637Z,92.80
2018-07-08T00:43:06.676Z,93.20
2018-07-08T00:45:34.734Z,93.40
2018-07-08T00:48:02.765Z,93.60
2018-07-08T00:50:30.813Z,93.50
2018-07-08T00:52:58.848Z,93.50
2018-07-08T00:55:26.888Z,93.80
2018-07-08T00:57:54.936Z,94.50
2018-07-08T01:00:30.141Z,94.90
2018-07-08T01:02:58.180Z,95.40
2018-07-08T01:05:26.428Z,95.80
2018-07-08T01:07:54.472Z,96.60
2018-07-08T01:10:22.535Z,96.60
2018-07-08T01:12:50.636Z,96.70
2018-07-08T01:17:46.550Z,96.70
2018-07-08T01:20:14.624Z,96.90
2018-07-08T01:22:42.677Z,97.40
2018-07-08T01:25:12.952Z,97.60
2018-07-08T01:27:41.138Z,97.60
2018-07-08T01:30:10.048Z,97.80
2018-07-08T01:32:38.106Z,97.90
2018-07-08T01:35:06.168Z,97.90
2018-07-08T01:37:34.228Z,97.90
2018-07-08T01:40:02.293Z,97.80
2018-07-08T01:42:31.176Z,97.40
2018-07-08T01:44:59.832Z,97.30
2018-07-08T01:47:27.884Z,97.30
2018-07-08T01:49:55.940Z,97.00
2018-07-08T01:52:25.268Z,96.40
2018-07-08T01:54:53.650Z,96.00
2018-07-08T01:57:21.822Z,96.20
2018-07-08T01:59:50.625Z,96.60
2018-07-08T02:02:18.828Z,96.50
2018-07-08T02:04:47.264Z,96.50
2018-07-08T02:07:15.816Z,96.30
2018-07-08T02:09:43.883Z,95.60
2018-07-08T02:12:11.933Z,95.40
2018-07-08T02:14:39.969Z,95.40
2018-07-08T02:17:08.008Z,95.50
2018-07-08T02:19:36.081Z,96.30
2018-07-08T02:22:04.128Z,96.60
2018-07-08T02:24:32.190Z,97.00
2018-07-08T02:27:00.244Z,97.10
2018-07-08T02:29:28.288Z,97.30
2018-07-08T02:31:56.356Z,97.00
2018-07-08T02:34:24.793Z,96.90
2018-07-08T02:36:52.837Z,96.90
2018-07-08T02:39:20.872Z,97.10
2018-07-08T02:41:48.961Z,97.20
2018-07-08T02:44:17.004Z,97.00
2018-07-08T02:46:45.146Z,96.60
2018-07-08T02:49:13.332Z,95.90
2018-07-08T02:51:41.384Z,95.60
2018-07-08T02:54:09.425Z,95.90
2018-07-08T02:56:37.473Z,95.80
2018-07-08T02:59:05.520Z,95.80
2018-07-08T03:01:33.565Z,96.10
2018-07-08T03:04:01.598Z,96.50
2018-07-08T03:06:29.636Z,97.00
2018-07-08T03:08:57.676Z,97.40
2018-07-08T03:11:25.741Z,98.00
2018-07-08T03:13:53.824Z,98.70
2018-07-08T03:16:21.885Z,98.60
2018-07-08T03:18:49.989Z,98.50
2018-07-08T03:21:18.052Z,98.60
2018-07-08T03:23:46.112Z,98.60
2018-07-08T03:26:14.168Z,98.60
2018-07-08T03:28:42.220Z,98.70
2018-07-08T03:31:10.284Z,98.70
2018-07-08T03:33:38.353Z,97.90
2018-07-08T03:36:06.608Z,97.60
2018-07-08T03:38:34.656Z,97.20
2018-07-08T03:41:02.716Z,97.00
2018-07-08T03:43:30.768Z,96.80
2018-07-08T03:45:58.840Z,96.70
2018-07-08T03:48:26.892Z,96.70
2018-07-08T03:50:54.952Z,96.60
2018-07-08T03:53:23.005Z,96.80
2018-07-08T03:55:51.057Z,97.00
2018-07-08T03:58:19.124Z,96.90
2018-07-08T04:00:47.217Z,97.00
2018-07-08T04:03:15.282Z,96.80
2018-07-08T04:05:43.328Z,96.80
2018-07-08T04:08:11.396Z,96.70
2018-07-08T04:10:39.444Z,96.80
2018-07-08T04:13:07.502Z,96.80
2018-07-08T04:15:35.536Z,96.80
2018-07-08T04:18:06.460Z,96.80
2018-07-08T04:20:34.640Z,96.60
2018-07-08T04:23:02.716Z,96.80
2018-07-08T04:25:31.125Z,96.90
2018-07-08T04:27:59.164Z,96.90
2018-07-08T04:30:27.329Z,96.90
2018-07-08T04:32:55.337Z,96.90
2018-07-08T04:35:23.372Z,96.80
2018-07-08T04:37:51.993Z,96.60
2018-07-08T04:40:20.065Z,96.50
2018-07-08T04:42:48.228Z,96.60
2018-07-08T04:45:16.267Z,96.30
2018-07-08T04:47:44.498Z,96.40
2018-07-08T04:50:12.660Z,96.00
2018-07-08T04:52:40.824Z,96.40
2018-07-08T04:55:09.052Z,96.20
2018-07-08T04:57:37.096Z,96.50
2018-07-08T05:00:05.292Z,96.70
2018-07-08T05:02:33.337Z,96.60
2018-07-08T05:05:01.412Z,96.50
2018-07-08T05:07:29.444Z,96.20
2018-07-08T05:09:58.170Z,96.00
2018-07-08T05:12:26.574Z,95.80
2018-07-08T05:14:54.614Z,96.20
2018-07-08T05:17:22.660Z,96.10
2018-07-08T05:19:50.717Z,95.70
2018-07-08T05:22:18.793Z,95.90
2018-07-08T05:24:46.813Z,94.70
2018-07-08T05:27:14.853Z,94.10
2018-07-08T05:29:42.892Z,94.50
2018-07-08T05:32:11.035Z,94.40
2018-07-08T05:34:39.044Z,94.30
2018-07-08T05:37:07.630Z,94.30
2018-07-08T05:39:35.678Z,94.20
2018-07-08T05:42:03.741Z,93.40
2018-07-08T05:44:31.792Z,93.70
2018-07-08T05:46:59.912Z,93.80
2018-07-08T05:49:28.036Z,93.70
2018-07-08T05:51:56.067Z,93.30
2018-07-08T05:54:24.100Z,91.80
2018-07-08T05:56:52.389Z,92.20
2018-07-08T05:59:20.432Z,92.50
2018-07-08T06:01:48.512Z,92.70
2018-07-08T06:04:16.805Z,92.90
2018-07-08T06:06:44.935Z,92.70
2018-07-08T06:09:12.970Z,92.60
2018-07-08T06:11:41.013Z,91.90
2018-07-08T06:14:09.069Z,91.10
2018-07-08T06:16:37.100Z,91.00
2018-07-08T06:19:05.257Z,90.20
2018-07-08T06:21:33.293Z,89.80
2018-07-08T06:24:01.345Z,89.70
2018-07-08T06:26:29.456Z,88.40
2018-07-08T06:28:57.513Z,84.90
2018-07-08T06:31:25.628Z,80.50
2018-07-08T06:33:53.669Z,76.80
2018-07-08T06:36:21.708Z,73.10
2018-07-08T06:38:49.793Z,69.40
2018-07-08T06:43:45.690Z,62.80
2018-07-08T06:46:13.737Z,58.80
2018-07-08T06:48:41.785Z,55.70
2018-07-08T06:51:09.832Z,54.40
2018-07-08T06:53:37.875Z,53.70
2018-07-08T06:56:05.912Z,50.90
2018-07-08T06:58:33.956Z,47.60
2018-07-08T07:01:01.994Z,47.60
2018-07-08T07:03:30.037Z,45.60
2018-07-08T07:05:58.078Z,45.60
2018-07-08T07:08:26.123Z,45.00
2018-07-08T07:10:54.161Z,42.30
2018-07-08T07:13:22.211Z,42.50
2018-07-08T07:15:51.052Z,41.00
2018-07-08T07:18:19.092Z,40.20
2018-07-08T07:20:47.126Z,40.60
2018-07-08T07:23:15.174Z,41.30
2018-07-08T07:25:43.200Z,41.30
2018-07-08T07:28:11.245Z,41.90
2018-07-08T07:30:39.293Z,42.20
2018-07-08T07:33:07.336Z,44.70
2018-07-08T07:35:35.378Z,45.50
2018-07-08T07:38:03.979Z,47.40
2018-07-08T07:40:32.024Z,44.80
2018-07-08T07:43:00.080Z,44.90
2018-07-08T07:45:28.180Z,42.60
2018-07-08T07:47:56.180Z,43.40
2018-07-08T07:50:24.232Z,44.00
2018-07-08T07:52:52.280Z,43.40
2018-07-08T07:55:20.324Z,44.70
2018-07-08T07:57:48.372Z,43.70
2018-07-08T08:00:16.440Z,44.50
2018-07-08T08:02:44.488Z,45.60
2018-07-08T08:05:12.528Z,45.00
2018-07-08T08:07:40.608Z,44.90
2018-07-08T08:10:08.658Z,46.00
2018-07-08T08:12:36.720Z,45.70
2018-07-08T08:15:04.825Z,45.10
2018-07-08T08:17:32.884Z,45.10
2018-07-08T08:22:28.986Z,47.70
2018-07-08T08:24:57.059Z,48.90
2018-07-08T08:27:25.125Z,45.00
2018-07-08T08:29:53.197Z,45.10
2018-07-08T08:32:21.252Z,46.00
2018-07-08T08:35:01.197Z,47.40
2018-07-08T08:37:30.504Z,45.90
2018-07-08T08:39:58.588Z,44.80
2018-07-08T08:42:26.648Z,43.50
2018-07-08T08:44:55.692Z,43.30
2018-07-08T08:47:24.176Z,42.70
2018-07-08T08:49:52.980Z,40.50
2018-07-08T08:52:21.174Z,42.40
2018-07-08T08:54:49.356Z,43.40
2018-07-08T08:57:17.436Z,40.30
2018-07-08T08:59:45.508Z,37.80
2018-07-08T09:02:13.564Z,40.70
2018-07-08T09:04:42.312Z,39.30
2018-07-08T09:07:12.441Z,40.90
2018-07-08T09:09:40.533Z,40.80
2018-07-08T09:12:09.124Z,41.20
2018-07-08T09:14:37.738Z,41.40
2018-07-08T09:17:06.122Z,39.80
2018-07-08T09:19:34.189Z,39.40
2018-07-08T09:22:02.341Z,41.90
2018-07-08T09:24:30.454Z,41.30
2018-07-08T09:26:58.493Z,40.20
2018-07-08T09:29:26.560Z,40.20
2018-07-08T09:31:54.626Z,39.30
2018-07-08T09:34:22.696Z,37.90
2018-07-08T09:36:50.756Z,37.40
2018-07-08T09:39:18.942Z,38.80
2018-07-08T09:41:47.357Z,41.00
2018-07-08T09:44:16.277Z,39.40
2018-07-08T09:46:45.380Z,38.60
2018-07-08T09:49:13.677Z,37.00
2018-07-08T09:51:42.069Z,35.10
2018-07-08T09:54:10.140Z,32.70
2018-07-08T09:56:38.224Z,33.90
2018-07-08T09:59:06.296Z,31.70
2018-07-08T10:01:46.882Z,29.00
2018-07-08T10:04:16.212Z,29.20
2018-07-08T10:06:45.011Z,32.20
2018-07-08T10:09:14.433Z,31.50
2018-07-08T10:11:42.574Z,30.70
2018-07-08T10:14:12.029Z,28.60
2018-07-08T10:16:40.118Z,28.10
2018-07-08T10:19:08.418Z,27.80
2018-07-08T10:21:36.465Z,31.10
2018-07-08T10:24:04.686Z,31.80
2018-07-08T10:26:32.745Z,29.30
2018-07-08T10:29:00.786Z,28.10
2018-07-08T10:31:40.256Z,30.10
2018-07-08T10:34:08.315Z,30.10
2018-07-08T10:36:36.381Z,32.10
2018-07-08T10:39:05.828Z,34.60
2018-07-08T10:41:33.866Z,35.30
2018-07-08T10:44:01.917Z,35.30
2018-07-08T10:48:57.812Z,37.00
2018-07-08T10:51:25.894Z,37.10
2018-07-08T10:53:54.081Z,36.30
2018-07-08T10:56:22.277Z,35.10
2018-07-08T10:58:50.315Z,34.60
2018-07-08T11:01:18.360Z,35.10
2018-07-08T11:03:46.475Z,34.90
2018-07-08T11:06:14.521Z,35.30
2018-07-08T11:08:42.984Z,36.70
2018-07-08T11:11:11.060Z,38.00
2018-07-08T11:13:39.097Z,37.00
2018-07-08T11:16:07.145Z,36.30
2018-07-08T11:18:35.183Z,33.90
2018-07-08T11:21:03.236Z,34.30
2018-07-08T11:23:31.280Z,35.00
2018-07-08T11:25:59.318Z,33.70
2018-07-08T11:28:27.383Z,33.40
2018-07-08T11:30:55.409Z,33.80
2018-07-08T11:33:23.449Z,31.30
2018-07-08T11:35:51.493Z,31.90
2018-07-08T11:38:19.528Z,30.80
2018-07-08T11:40:47.581Z,33.40
2018-07-08T11:43:15.657Z,32.50
2018-07-08T11:45:43.701Z,33.10
2018-07-08T11:48:11.756Z,34.30
2018-07-08T11:50:39.796Z,33.10
2018-07-08T11:55:35.756Z,34.60
2018-07-08T11:58:03.866Z,37.20
2018-07-08T12:02:59.739Z,34.10
2018-07-08T12:05:27.797Z,32.40
2018-07-08T12:07:55.848Z,33.30
2018-07-08T12:10:23.888Z,33.60
2018-07-08T12:12:51.935Z,37.30
2018-07-08T12:17:47.872Z,32.30
2018-07-08T12:20:15.983Z,36.70
2018-07-08T12:22:43.960Z,35.50
2018-07-08T12:25:12.005Z,35.40
2018-07-08T12:27:40.113Z,36.20
2018-07-08T12:30:08.080Z,36.50
2018-07-08T12:32:36.121Z,36.90
2018-07-08T12:35:04.205Z,37.00
2018-07-08T12:37:32.254Z,34.80
2018-07-08T12:40:00.300Z,35.70
2018-07-08T12:42:28.348Z,36.70
2018-07-08T12:47:24.252Z,37.40
2018-07-08T12:49:52.297Z,35.60
2018-07-08T12:52:20.332Z,29.90
2018-07-08T12:54:48.381Z,32.60
2018-07-08T12:57:16.441Z,32.10
2018-07-08T12:59:44.480Z,31.30
2018-07-08T13:02:12.524Z,31.00
2018-07-08T13:04:40.624Z,32.00
2018-07-08T13:07:08.669Z,32.30
2018-07-08T13:09:36.708Z,32.00
2018-07-08T13:12:04.765Z,33.20
2018-07-08T13:14:32.804Z,34.00
2018-07-08T13:17:00.860Z,33.50
2018-07-08T13:19:28.888Z,34.50
2018-07-08T13:24:24.813Z,30.00
2018-07-08T13:26:53.165Z,32.40
2018-07-08T13:29:21.238Z,33.30
2018-07-08T13:31:49.320Z,32.50
2018-07-08T13:34:17.361Z,32.50
2018-07-08T13:36:45.407Z,34.00
2018-07-08T13:39:13.624Z,34.10
2018-07-08T13:41:41.640Z,33.70
2018-07-08T13:44:09.992Z,29.60
2018-07-08T13:46:38.033Z,30.70
2018-07-08T13:49:06.076Z,29.10
2018-07-08T13:51:34.132Z,30.60
2018-07-08T13:54:02.168Z,31.30
2018-07-08T13:56:30.208Z,33.00
2018-07-08T13:58:58.248Z,31.80
2018-07-08T14:01:26.300Z,31.90
2018-07-08T14:03:54.347Z,28.90
2018-07-08T14:06:22.508Z,30.50
2018-07-08T14:08:50.552Z,29.80
2018-07-08T14:11:18.632Z,29.30
2018-07-08T14:13:46.753Z,28.30
2018-07-08T14:18:42.692Z,34.90
2018-07-08T14:21:10.768Z,33.90
2018-07-08T14:23:38.836Z,32.20
2018-07-08T14:26:06.896Z,33.60
2018-07-08T14:28:34.989Z,30.50
2018-07-08T14:31:03.073Z,32.00
2018-07-08T14:33:31.093Z,32.70
2018-07-08T14:35:59.185Z,34.00
2018-07-08T14:38:27.246Z,33.50
2018-07-08T14:40:55.317Z,29.30
2018-07-08T14:43:23.377Z,32.90
2018-07-08T14:45:51.478Z,35.70
2018-07-08T14:48:19.508Z,34.40
2018-07-08T14:50:47.579Z,32.00
2018-07-08T14:53:15.636Z,32.80
2018-07-08T14:55:43.714Z,32.00
2018-07-08T14:58:11.765Z,31.50
2018-07-08T15:03:07.748Z,33.20
2018-07-08T15:05:35.812Z,31.60
2018-07-08T15:08:03.876Z,31.20
2018-07-08T15:10:31.938Z,32.40
2018-07-08T15:13:00.168Z,34.10
2018-07-08T15:15:28.259Z,36.20
2018-07-08T15:17:56.280Z,33.40
2018-07-08T15:20:24.329Z,35.40
2018-07-08T15:22:52.421Z,36.70
2018-07-08T15:25:20.480Z,34.10
2018-07-08T15:27:48.558Z,33.50
2018-07-08T15:30:16.622Z,32.40
2018-07-08T15:32:44.691Z,33.60
2018-07-08T15:35:12.865Z,32.20
2018-07-08T15:37:41.172Z,33.80
2018-07-08T15:40:09.456Z,33.90
2018-07-08T15:42:37.636Z,35.50
2018-07-08T15:45:06.349Z,36.50
2018-07-08T15:47:34.506Z,37.30
2018-07-08T15:50:02.585Z,33.50
2018-07-08T15:52:31.737Z,33.40
2018-07-08T15:54:59.801Z,33.50
2018-07-08T15:57:27.873Z,32.90
2018-07-08T15:59:55.969Z,32.40
2018-07-08T16:02:24.023Z,33.80
2018-07-08T16:04:52.085Z,33.10
2018-07-08T16:07:20.157Z,32.10
2018-07-08T16:09:48.229Z,33.60
2018-07-08T16:12:16.305Z,33.60
2018-07-08T16:14:44.437Z,33.70
2018-07-08T16:17:12.501Z,32.90
2018-07-08T16:19:40.598Z,33.40
2018-07-08T16:22:08.660Z,36.80
2018-07-08T16:24:36.736Z,36.10
2018-07-08T16:27:04.899Z,33.40
2018-07-08T16:29:32.949Z,33.80
2018-07-08T16:32:01.081Z,34.40
2018-07-08T16:34:29.136Z,34.60
2018-07-08T16:36:57.201Z,34.50
2018-07-08T16:39:25.285Z,35.20
2018-07-08T16:41:53.777Z,34.90
2018-07-08T16:44:21.832Z,34.90
2018-07-08T16:46:49.906Z,34.20
2018-07-08T16:49:17.977Z,34.20
2018-07-08T16:51:46.044Z,35.10
2018-07-08T16:54:14.175Z,38.60
2018-07-08T16:56:42.345Z,35.70
2018-07-08T16:59:10.536Z,35.20
2018-07-08T17:01:38.632Z,35.30
2018-07-08T17:04:06.903Z,35.30
2018-07-08T17:06:35.049Z,35.40
2018-07-08T17:09:03.146Z,35.70
2018-07-08T17:11:31.221Z,35.50
2018-07-08T17:13:59.449Z,35.70
2018-07-08T17:16:27.616Z,35.80
2018-07-08T17:18:55.680Z,36.00
2018-07-08T17:21:23.749Z,35.70
2018-07-08T17:23:51.820Z,35.90
2018-07-08T17:26:19.894Z,36.70
2018-07-08T17:28:48.347Z,37.10
2018-07-08T17:31:16.540Z,36.80
2018-07-08T17:33:44.736Z,35.70
2018-07-08T17:36:12.801Z,36.00
2018-07-08T17:38:41.053Z,36.70
2018-07-08T17:41:09.106Z,35.80
2018-07-08T17:43:37.577Z,36.90
2018-07-08T17:46:05.725Z,37.10
2018-07-08T17:51:01.578Z,37.40
2018-07-08T17:53:29.869Z,37.30
2018-07-08T17:55:57.925Z,37.00
2018-07-08T17:58:25.984Z,37.90
2018-07-08T18:00:54.048Z,37.00
2018-07-08T18:03:22.239Z,37.50
2018-07-08T18:05:50.231Z,38.00
2018-07-08T18:08:18.436Z,38.40
2018-07-08T18:10:46.610Z,39.30
2018-07-08T18:13:14.663Z,39.00
2018-07-08T18:15:42.691Z,38.80
2018-07-08T18:18:10.817Z,38.20
2018-07-08T18:20:38.872Z,38.80
2018-07-08T18:23:06.953Z,37.70
2018-07-08T18:25:35.126Z,37.20
2018-07-08T18:28:03.237Z,37.90
2018-07-08T18:30:32.269Z,37.90
2018-07-08T18:35:28.148Z,38.80
2018-07-08T18:37:56.197Z,38.50
2018-07-08T18:40:24.232Z,38.50
2018-07-08T18:42:52.380Z,38.70
2018-07-08T18:45:20.412Z,40.10
2018-07-08T18:47:48.460Z,40.30
2018-07-08T18:50:16.512Z,41.30
2018-07-08T18:52:44.568Z,40.90
2018-07-08T18:55:12.601Z,41.60
2018-07-08T18:57:40.647Z,41.40
2018-07-08T19:00:08.688Z,40.80
2018-07-08T19:02:36.765Z,41.20
2018-07-08T19:05:04.896Z,40.80
2018-07-08T19:07:33.696Z,42.10
2018-07-08T19:10:01.784Z,42.10
2018-07-08T19:12:30.035Z,41.20
2018-07-08T19:14:58.200Z,41.60
2018-07-08T19:17:26.241Z,41.80
2018-07-08T19:19:54.280Z,42.90
2018-07-08T19:22:22.338Z,41.90
2018-07-08T19:24:50.384Z,42.00
2018-07-08T19:27:18.420Z,42.70
2018-07-08T19:29:46.464Z,42.60
2018-07-08T19:32:14.504Z,42.80
2018-07-08T19:34:42.817Z,45.60
2018-07-08T19:37:10.852Z,42.60
2018-07-08T19:39:38.925Z,43.60
2018-07-08T19:42:06.970Z,45.60
2018-07-08T19:44:35.011Z,43.60
2018-07-08T19:47:03.049Z,44.90
2018-07-08T19:49:31.091Z,46.00
2018-07-08T19:51:59.117Z,46.40
2018-07-08T19:54:27.160Z,48.00
2018-07-08T19:56:55.221Z,47.70
2018-07-08T19:59:23.825Z,47.20
2018-07-08T20:01:51.871Z,46.20
2018-07-08T20:04:19.913Z,46.90
2018-07-08T20:06:47.961Z,47.60
2018-07-08T20:09:16.060Z,47.20
2018-07-08T20:11:44.105Z,47.80
2018-07-08T20:14:12.152Z,47.50
2018-07-08T20:16:40.201Z,47.20
2018-07-08T20:19:08.346Z,47.90
2018-07-08T20:21:36.373Z,49.30
2018-07-08T20:24:04.411Z,48.70
2018-07-08T20:26:32.444Z,49.50
2018-07-08T20:29:00.492Z,49.50
2018-07-08T20:31:28.532Z,48.90
2018-07-08T20:33:56.577Z,48.50
2018-07-08T20:36:24.616Z,48.90
2018-07-08T20:38:52.657Z,49.50
2018-07-08T20:41:20.703Z,49.20
2018-07-08T20:43:48.745Z,48.90
2018-07-08T20:46:16.780Z,50.10
2018-07-08T20:48:44.829Z,49.80
2018-07-08T20:51:12.887Z,50.10
2018-07-08T20:53:41.311Z,52.30
2018-07-08T20:56:09.341Z,52.40
2018-07-08T20:58:37.389Z,54.90
2018-07-08T21:01:05.474Z,56.70
2018-07-08T21:03:33.521Z,58.30
2018-07-08T21:06:01.561Z,58.50
2018-07-08T21:08:29.606Z,60.50
2018-07-08T21:13:25.885Z,62.40
2018-07-08T21:18:21.804Z,60.00
2018-07-08T21:20:49.876Z,59.20
2018-07-08T21:23:18.143Z,58.80
2018-07-08T21:25:46.449Z,59.80
2018-07-08T21:28:14.500Z,60.20
2018-07-08T21:30:42.913Z,59.70
2018-07-08T21:33:11.205Z,58.20
2018-07-08T21:35:39.265Z,59.20
2018-07-08T21:38:07.330Z,59.60
2018-07-08T21:40:35.400Z,61.70
2018-07-08T21:43:03.460Z,59.30
2018-07-08T21:45:31.529Z,57.80
2018-07-08T21:47:59.597Z,57.00
2018-07-08T21:50:27.672Z,58.60
2018-07-08T21:52:55.708Z,60.40
2018-07-08T21:55:23.764Z,61.20
2018-07-08T21:57:51.805Z,61.10
2018-07-08T22:00:29.261Z,61.50
2018-07-08T22:02:57.312Z,62.70
2018-07-08T22:05:25.737Z,63.00
2018-07-08T22:07:59.273Z,63.60
2018-07-08T22:10:29.693Z,63.90
2018-07-08T22:12:58.184Z,66.50
2018-07-08T22:15:26.348Z,66.80
2018-07-08T22:20:22.621Z,69.10
2018-07-08T22:22:50.661Z,69.10
2018-07-08T22:25:18.713Z,68.80
2018-07-08T22:27:46.888Z,67.40
2018-07-08T22:30:15.288Z,65.70
2018-07-08T22:32:43.469Z,65.40
2018-07-08T22:35:11.517Z,67.20
2018-07-08T22:37:39.553Z,67.70
2018-07-08T22:40:08.036Z,66.40
2018-07-08T22:42:36.217Z,65.60
2018-07-08T22:45:04.564Z,63.40
2018-07-08T22:47:32.600Z,63.00
2018-07-08T22:50:00.642Z,64.60
2018-07-08T22:54:56.600Z,68.70
2018-07-08T22:57:24.641Z,69.60
2018-07-08T23:01:05.180Z,70.30
2018-07-08T23:03:53.824Z,69.70
2018-07-08T23:06:21.872Z,68.50
2018-07-08T23:08:50.475Z,70.40
2018-07-08T23:11:19.064Z,70.40
2018-07-08T23:13:48.005Z,71.60
2018-07-08T23:16:16.084Z,71.00
2018-07-08T23:18:44.340Z,70.20
2018-07-08T23:21:12.405Z,71.20
2018-07-08T23:23:40.468Z,71.80
2018-07-08T23:26:08.532Z,71.50
2018-07-08T23:28:37.091Z,70.70
2018-07-08T23:31:05.693Z,69.40
2018-07-08T23:33:33.754Z,68.80
2018-07-08T23:36:02.677Z,68.50
2018-07-08T23:38:31.271Z,68.90
2018-07-08T23:40:59.976Z,69.00
2018-07-08T23:43:28.052Z,69.20
2018-07-08T23:45:56.116Z,69.20
2018-07-08T23:48:24.176Z,69.60
2018-07-08T23:50:52.237Z,70.00
2018-07-08T23:53:20.301Z,70.20
2018-07-08T23:55:48.364Z,70.70
2018-07-08T23:58:16.416Z,71.30
